Time;durP1;ratioP1;P1;durP2;ratioP2;P2;SDS_P1;SDS_P2;PMS_P1;PMS_P2;Temp;Humidity;BMP_temperature;BMP_pressure;BME280_temperature;BME280_humidity;BME280_pressure;Samples;Min_cycle;Max_cycle;Signal;HPM_P1;HPM_P2
2023/10/19 00:01:58;;;;;;;261.35;100.65;;;;;;;7.50;94.51;100353.81;5002986;28;20198;-49
2023/10/19 00:04:24;;;;;;;239.45;99.22;;;;;;;7.48;94.49;100339.66;5002454;28;20213;-50
2023/10/19 00:06:50;;;;;;;256.10;97.22;;;;;;;7.58;93.91;100336.63;5002653;28;20203;-47
2023/10/19 00:09:16;;;;;;;282.08;103.45;;;;;;;7.56;93.44;100318.97;5000255;28;20605;-48
2023/10/19 00:11:42;;;;;;;285.75;103.13;;;;;;;7.52;93.34;100327.97;5005434;28;20560;-49
2023/10/19 00:14:21;;;;;;;194.05;96.15;;;;;;;7.52;93.21;100325.31;5003955;28;20661;-48
2023/10/19 00:19:37;;;;;;;174.32;94.60;;;;;;;7.67;92.97;100310.59;5002751;28;20185;-46
2023/10/19 00:22:08;;;;;;;222.40;99.88;;;;;;;7.66;92.84;100301.72;4997766;28;20220;-48
2023/10/19 00:24:34;;;;;;;261.48;101.40;;;;;;;7.62;92.37;100276.97;5000809;28;20215;-47
2023/10/19 00:27:06;;;;;;;217.35;98.78;;;;;;;7.57;92.61;100294.06;5000940;28;20315;-47
2023/10/19 00:29:33;;;;;;;130.23;83.57;;;;;;;7.56;92.52;100284.31;4987418;28;20195;-48
2023/10/19 00:32:06;;;;;;;280.20;101.00;;;;;;;7.55;92.98;100283.44;4972106;28;20182;-48
2023/10/19 00:34:31;;;;;;;271.40;101.13;;;;;;;7.60;93.37;100277.94;5006017;28;20236;-47
2023/10/19 00:37:01;;;;;;;281.60;102.82;;;;;;;7.53;93.50;100284.41;4986961;28;20219;-47
2023/10/19 00:39:27;;;;;;;272.48;99.47;;;;;;;7.50;93.87;100274.75;4996889;28;20189;-47
2023/10/19 00:41:57;;;;;;;290.73;103.68;;;;;;;7.49;94.05;100267.66;5003248;28;20212;-49
2023/10/19 00:44:28;;;;;;;274.08;100.18;;;;;;;7.48;94.28;100271.25;5009244;28;20208;-48
2023/10/19 00:47:03;;;;;;;229.02;97.75;;;;;;;7.51;94.37;100260.47;5006679;28;20188;-48
2023/10/19 00:49:30;;;;;;;281.65;99.22;;;;;;;7.49;94.58;100253.47;5002603;28;20184;-48
2023/10/19 00:52:02;;;;;;;230.32;95.32;;;;;;;7.53;94.75;100258.63;5003887;28;20191;-47
2023/10/19 00:57:13;;;;;;;207.23;93.13;;;;;;;7.49;94.57;100233.00;5005000;28;20177;-47
2023/10/19 00:59:43;;;;;;;259.80;98.47;;;;;;;7.53;94.54;100234.63;5006407;28;20216;-48
2023/10/19 01:02:28;;;;;;;270.83;98.38;;;;;;;7.58;94.04;100224.66;4993482;28;20259;-46
2023/10/19 01:04:56;;;;;;;271.25;97.93;;;;;;;7.57;94.05;100235.41;5005469;28;20757;-46
2023/10/19 01:09:53;;;;;;;293.17;98.03;;;;;;;7.54;93.90;100214.16;5004248;28;20193;-47
2023/10/19 01:15:13;;;;;;;278.25;99.32;;;;;;;7.62;93.37;100209.44;5000361;28;20207;-47
2023/10/19 01:17:40;;;;;;;257.08;98.63;;;;;;;7.60;93.07;100187.31;5003844;28;20191;-47
2023/10/19 01:20:33;;;;;;;218.88;96.93;;;;;;;7.60;93.11;100193.50;4994742;28;20239;-47
2023/10/19 01:23:08;;;;;;;258.85;100.35;;;;;;;7.60;92.80;100196.16;5004460;28;20247;-46
2023/10/19 01:31:06;;;;;;;265.70;100.55;;;;;;;7.72;91.88;100191.31;5004322;28;20210;-47
2023/10/19 01:33:34;;;;;;;259.65;98.55;;;;;;;7.72;92.10;100186.88;5003644;28;20572;-48
2023/10/19 01:36:12;;;;;;;294.88;102.55;;;;;;;7.76;91.86;100184.94;5005463;28;20633;-48
2023/10/19 01:38:41;;;;;;;283.10;103.28;;;;;;;7.66;91.57;100183.56;5002186;28;20605;-46
2023/10/19 01:41:18;;;;;;;277.13;103.07;;;;;;;7.71;91.48;100186.91;5003969;28;20217;-47
2023/10/19 01:43:46;;;;;;;309.52;102.20;;;;;;;7.70;91.35;100185.19;5006429;28;20207;-48
2023/10/19 01:46:13;;;;;;;285.00;101.28;;;;;;;7.66;91.48;100160.41;4989766;28;20180;-47
2023/10/19 01:49:02;;;;;;;292.80;103.25;;;;;;;7.68;91.30;100163.03;5004180;28;20184;-47
2023/10/19 01:51:28;;;;;;;285.30;102.82;;;;;;;7.68;91.30;100171.03;5003903;28;20192;-46
2023/10/19 01:53:55;;;;;;;273.98;101.93;;;;;;;7.69;91.18;100162.97;4984511;28;20211;-46
2023/10/19 01:56:21;;;;;;;230.60;100.35;;;;;;;7.66;91.15;100154.22;5009046;28;20196;-48
2023/10/19 01:58:49;;;;;;;29.25;27.00;;;;;;;7.71;91.19;100142.44;4992562;28;20261;-47
2023/10/19 02:01:28;;;;;;;111.05;81.10;;;;;;;7.70;91.14;100138.06;5004854;28;20247;-45
2023/10/19 02:04:03;;;;;;;128.60;87.85;;;;;;;7.67;90.78;100143.47;4986919;28;20226;-47
2023/10/19 02:06:36;;;;;;;191.75;97.82;;;;;;;7.70;90.67;100132.72;4991507;28;20169;-46
2023/10/19 02:09:09;;;;;;;188.57;97.00;;;;;;;7.64;91.17;100127.63;4985484;28;20188;-47
2023/10/19 02:11:37;;;;;;;74.68;66.70;;;;;;;7.72;91.07;100127.31;4991058;28;20204;-46
2023/10/19 02:17:44;;;;;;;177.93;92.00;;;;;;;7.70;90.80;100092.72;4997502;28;20181;-47
2023/10/19 02:20:12;;;;;;;205.15;98.72;;;;;;;7.71;91.04;100097.13;5005319;28;20181;-47
2023/10/19 02:22:37;;;;;;;127.47;80.97;;;;;;;7.77;90.88;100088.03;5004373;28;20201;-47
2023/10/19 02:25:05;;;;;;;150.57;94.07;;;;;;;7.76;90.63;100075.59;5003476;28;20215;-46
2023/10/19 02:27:30;;;;;;;87.25;72.72;;;;;;;7.77;90.70;100080.03;4990384;28;20199;-47
2023/10/19 02:29:56;;;;;;;35.38;32.47;;;;;;;7.79;90.60;100091.50;5004701;28;20220;-49
2023/10/19 02:32:22;;;;;;;76.78;67.90;;;;;;;7.76;90.63;100084.50;5003758;28;20192;-47
2023/10/19 02:34:48;;;;;;;131.07;87.15;;;;;;;7.74;90.75;100094.34;4991341;28;20776;-47
2023/10/19 02:37:14;;;;;;;139.32;88.47;;;;;;;7.73;90.82;100089.94;5001539;28;20166;-46
2023/10/19 02:39:39;;;;;;;145.07;89.43;;;;;;;7.83;90.93;100082.47;5005607;28;20171;-47
2023/10/19 02:42:05;;;;;;;170.38;96.53;;;;;;;7.73;90.63;100078.41;5003865;28;20573;-46
2023/10/19 02:44:30;;;;;;;205.95;99.68;;;;;;;7.78;90.59;100068.41;5002546;28;20212;-47
2023/10/19 02:46:59;;;;;;;117.50;81.47;;;;;;;7.81;90.43;100074.50;5004024;28;20545;-48
2023/10/19 02:49:26;;;;;;;185.68;100.47;;;;;;;7.81;90.50;100069.19;5001425;28;20185;-47
2023/10/19 02:51:53;;;;;;;191.73;101.50;;;;;;;7.84;90.40;100065.50;4998843;28;20658;-45
2023/10/19 02:54:29;;;;;;;191.45;102.40;;;;;;;7.80;90.18;100055.91;4995650;28;20572;-47
2023/10/19 02:56:59;;;;;;;187.55;103.18;;;;;;;7.82;90.23;100059.38;5003890;28;20754;-47
2023/10/19 02:59:28;;;;;;;223.50;112.05;;;;;;;7.84;90.35;100058.38;5000445;28;20292;-47
2023/10/19 03:04:37;;;;;;;208.88;107.78;;;;;;;7.82;90.01;100052.22;5000244;28;20224;-46
2023/10/19 03:07:04;;;;;;;218.15;104.07;;;;;;;7.86;90.39;100050.31;5003373;28;20177;-48
2023/10/19 03:09:29;;;;;;;227.75;109.05;;;;;;;7.84;90.18;100050.38;4985435;28;20181;-47
2023/10/19 03:11:59;;;;;;;240.40;108.97;;;;;;;7.75;90.30;100050.75;4991865;28;20230;-46
2023/10/19 03:14:28;;;;;;;246.63;108.93;;;;;;;7.83;90.41;100043.31;5006769;28;20193;-48
2023/10/19 03:16:57;;;;;;;263.08;114.85;;;;;;;7.80;90.33;100062.09;5002263;28;20602;-47
2023/10/19 03:19:24;;;;;;;259.70;111.47;;;;;;;7.82;90.37;100041.56;5000084;28;20313;-49
2023/10/19 03:21:50;;;;;;;266.45;110.22;;;;;;;7.88;90.20;100039.59;4991620;28;20196;-49
2023/10/19 03:24:35;;;;;;;129.80;94.53;;;;;;;7.82;90.49;100038.03;4985492;28;20744;-47
2023/10/19 03:27:22;;;;;;;176.45;101.43;;;;;;;7.84;90.55;100031.72;5004989;28;20275;-47
2023/10/19 03:29:54;;;;;;;116.30;88.80;;;;;;;7.92;90.07;100027.88;5004967;28;20169;-48
2023/10/19 03:32:22;;;;;;;187.00;108.18;;;;;;;7.92;90.11;100030.56;5001983;28;20174;-49
2023/10/19 03:34:50;;;;;;;151.55;99.63;;;;;;;7.92;90.08;100026.09;4987308;28;20244;-46
2023/10/19 03:37:17;;;;;;;188.25;106.47;;;;;;;7.93;89.78;100032.28;5002443;28;20647;-46
2023/10/19 03:39:45;;;;;;;98.15;81.35;;;;;;;7.94;89.60;100034.03;4984569;28;20181;-48
2023/10/19 03:42:13;;;;;;;139.50;97.32;;;;;;;7.92;89.88;100035.88;4999552;28;20223;-47
2023/10/19 03:44:51;;;;;;;180.80;103.60;;;;;;;7.94;89.78;100026.88;4986225;28;20288;-47
2023/10/19 03:47:20;;;;;;;187.63;102.30;;;;;;;7.92;89.79;100006.56;5000164;28;20187;-47
2023/10/19 03:49:50;;;;;;;138.15;94.38;;;;;;;8.02;89.36;100007.91;5001510;28;20231;-46
2023/10/19 03:54:41;;;;;;;224.73;109.82;;;;;;;8.00;89.18;100013.31;5000719;28;20208;-48
2023/10/19 03:57:25;;;;;;;272.42;114.43;;;;;;;7.94;89.29;99997.56;4986143;28;20267;-47
2023/10/19 03:59:57;;;;;;;231.52;111.47;;;;;;;7.90;89.25;100001.28;4987834;28;20201;-46
2023/10/19 04:02:29;;;;;;;190.27;109.53;;;;;;;7.90;89.44;100011.94;5000243;28;20655;-46
2023/10/19 04:04:57;;;;;;;212.70;111.38;;;;;;;7.97;89.12;100000.09;5002398;28;20203;-47
2023/10/19 04:07:25;;;;;;;285.10;112.50;;;;;;;8.02;89.23;100006.13;5003554;28;20188;-46
2023/10/19 04:12:35;;;;;;;166.63;106.88;;;;;;;8.01;89.00;99998.16;4999832;28;20188;-45
2023/10/19 04:17:38;;;;;;;164.13;93.57;;;;;;;8.08;89.13;99985.44;5005792;28;20199;-47
2023/10/19 04:21:05;;;;;;;110.25;92.45;;;;;;;8.05;88.84;99999.78;5003195;28;20276;-46
2023/10/19 04:23:06;;;;;;;191.02;104.25;;;;;;;8.09;88.66;99997.84;4988062;28;20758;-47
2023/10/19 04:25:31;;;;;;;192.75;109.35;;;;;;;8.06;88.70;99990.84;4998596;28;20236;-44
2023/10/19 04:27:57;;;;;;;271.27;114.55;;;;;;;8.00;88.89;99991.97;5003515;28;20189;-47
2023/10/19 04:30:22;;;;;;;294.80;115.22;;;;;;;8.13;88.90;99994.97;5005076;28;20654;-47
2023/10/19 04:32:50;;;;;;;201.23;113.97;;;;;;;8.08;88.44;99986.31;5002346;28;20165;-46
2023/10/19 04:35:22;;;;;;;253.68;116.47;;;;;;;8.11;88.34;99979.97;4999208;28;20246;-46
2023/10/19 04:37:54;;;;;;;258.70;115.18;;;;;;;8.06;88.60;99980.16;5001565;28;20189;-48
2023/10/19 04:40:23;;;;;;;286.20;115.57;;;;;;;8.02;88.82;99978.53;4999881;28;20651;-46
2023/10/19 04:42:51;;;;;;;185.07;113.20;;;;;;;8.13;88.62;99973.63;5003264;28;20288;-47
2023/10/19 04:45:16;;;;;;;223.38;116.30;;;;;;;8.04;88.70;99971.34;4985840;28;20284;-47
2023/10/19 04:47:42;;;;;;;249.18;112.97;;;;;;;8.08;88.61;99972.09;5002329;28;20269;-48
2023/10/19 04:50:10;;;;;;;204.40;114.65;;;;;;;8.03;88.66;99958.97;5006354;28;20185;-49
2023/10/19 04:52:36;;;;;;;264.92;117.20;;;;;;;8.00;88.58;99965.28;4990141;23;20229;-51
2023/10/19 04:55:02;;;;;;;188.38;113.88;;;;;;;8.09;88.85;99957.81;4975382;28;20209;-51
2023/10/19 04:57:28;;;;;;;214.70;119.85;;;;;;;8.11;88.41;99967.53;4988407;28;20169;-51
2023/10/19 04:59:53;;;;;;;220.00;117.38;;;;;;;8.08;88.48;99962.28;4981580;28;20516;-51
2023/10/19 05:02:18;;;;;;;216.05;114.90;;;;;;;8.10;88.40;99944.44;4982681;28;20216;-51
2023/10/19 05:04:45;;;;;;;214.88;109.38;;;;;;;8.01;88.66;99939.47;4980858;28;20209;-53
2023/10/19 05:07:16;;;;;;;241.88;113.00;;;;;;;8.05;88.34;99935.75;4984525;28;20236;-51
2023/10/19 05:09:45;;;;;;;226.23;110.80;;;;;;;8.06;88.53;99929.47;4971306;28;20190;-52
2023/10/19 05:12:11;;;;;;;249.80;112.57;;;;;;;8.08;88.39;99921.41;4979888;28;20209;-51
2023/10/19 05:14:38;;;;;;;227.23;111.50;;;;;;;8.07;88.42;99917.88;4972067;28;21497;-51
2023/10/19 05:17:05;;;;;;;234.48;112.03;;;;;;;8.11;88.34;99926.59;4979889;28;20193;-51
2023/10/19 05:19:34;;;;;;;248.70;111.78;;;;;;;8.05;88.28;99901.94;4983267;28;20555;-52
2023/10/19 05:22:01;;;;;;;262.98;114.45;;;;;;;8.15;88.12;99910.41;4987118;28;20228;-53
2023/10/19 05:24:27;;;;;;;249.88;114.13;;;;;;;8.10;88.01;99907.06;4986633;28;20206;-51
2023/10/19 05:26:53;;;;;;;256.70;115.68;;;;;;;8.09;88.16;99915.13;4984011;28;20236;-51
2023/10/19 05:29:20;;;;;;;238.15;113.90;;;;;;;8.14;87.99;99908.69;4986346;28;20212;-51
2023/10/19 05:31:45;;;;;;;255.43;114.90;;;;;;;8.23;87.78;99905.59;4988583;28;20170;-52
2023/10/19 05:34:11;;;;;;;254.43;111.18;;;;;;;8.10;87.79;99901.75;4989174;28;20597;-52
2023/10/19 05:36:36;;;;;;;250.82;112.85;;;;;;;8.19;88.01;99936.03;4984968;28;20177;-51
2023/10/19 05:39:04;;;;;;;258.60;114.85;;;;;;;8.03;88.30;99917.13;4985927;28;20174;-51
2023/10/19 05:41:31;;;;;;;276.20;117.50;;;;;;;8.14;87.96;99916.69;4987841;28;20688;-51
2023/10/19 05:43:57;;;;;;;275.17;116.68;;;;;;;8.17;87.73;99908.53;4985280;28;20194;-52
2023/10/19 05:46:24;;;;;;;278.38;115.63;;;;;;;8.13;87.75;99896.25;4991141;28;20189;-49
2023/10/19 05:48:50;;;;;;;274.10;115.80;;;;;;;8.15;87.88;99897.06;4994202;28;20181;-48
2023/10/19 05:51:17;;;;;;;282.65;117.03;;;;;;;8.12;87.57;99899.88;4993954;28;20252;-47
2023/10/19 05:53:44;;;;;;;285.48;118.13;;;;;;;8.14;87.66;99898.00;4993495;28;20154;-47
2023/10/19 05:56:10;;;;;;;269.35;115.80;;;;;;;8.15;87.60;99917.53;4987702;28;20280;-50
2023/10/19 05:58:36;;;;;;;289.00;114.88;;;;;;;8.22;87.41;99895.88;5007940;28;20215;-49
2023/10/19 06:01:02;;;;;;;313.17;116.38;;;;;;;8.20;87.14;99896.88;5013177;28;20193;-48
2023/10/19 06:03:28;;;;;;;296.73;114.45;;;;;;;8.14;87.14;99895.34;4978980;28;20268;-49
2023/10/19 06:05:56;;;;;;;301.75;118.03;;;;;;;8.17;87.20;99894.34;4973969;28;20174;-49
2023/10/19 06:08:24;;;;;;;320.00;116.85;;;;;;;8.18;87.20;99910.28;4973482;28;20174;-48
2023/10/19 06:10:52;;;;;;;307.00;118.10;;;;;;;8.21;87.35;99901.28;4978188;28;20189;-47
2023/10/19 06:13:17;;;;;;;298.70;115.80;;;;;;;8.23;87.13;99902.06;4975745;28;20181;-49
2023/10/19 06:15:43;;;;;;;279.98;116.47;;;;;;;8.25;87.13;99893.06;4992989;28;20190;-47
2023/10/19 06:18:10;;;;;;;318.80;116.93;;;;;;;8.24;86.66;99891.34;4992741;28;20200;-48
2023/10/19 06:20:36;;;;;;;283.67;111.78;;;;;;;8.22;86.84;99887.00;5009328;28;20180;-50
2023/10/19 06:23:04;;;;;;;295.73;117.95;;;;;;;8.21;86.69;99882.59;5007786;28;20572;-49
2023/10/19 06:25:31;;;;;;;313.70;119.18;;;;;;;8.25;86.61;99895.72;4984798;28;20217;-50
2023/10/19 06:27:57;;;;;;;327.05;119.03;;;;;;;8.26;86.22;99880.59;4972950;28;20174;-47
2023/10/19 06:30:24;;;;;;;302.45;118.18;;;;;;;8.29;86.08;99869.78;4976998;28;20239;-49
2023/10/19 06:33:00;;;;;;;311.02;117.13;;;;;;;8.28;86.07;99870.72;5011356;28;20239;-48
2023/10/19 06:35:27;;;;;;;7.90;4.28;;;;;;;8.29;86.13;99877.81;5010266;28;20196;-48
2023/10/19 06:37:54;;;;;;;30.80;28.10;;;;;;;8.33;86.24;99887.41;4991791;28;20243;-49
2023/10/19 06:40:21;;;;;;;206.82;107.78;;;;;;;8.29;86.14;99874.25;5004456;28;20208;-49
2023/10/19 06:42:49;;;;;;;193.05;105.10;;;;;;;8.34;86.13;99870.44;4993396;28;20193;-50
2023/10/19 06:45:15;;;;;;;161.07;99.40;;;;;;;8.35;86.08;99873.97;4986214;28;20214;-47
2023/10/19 06:47:45;;;;;;;225.30;109.20;;;;;;;8.36;86.14;99891.75;4973007;28;20634;-46
2023/10/19 06:50:15;;;;;;;233.02;105.80;;;;;;;8.40;85.78;99878.22;4994932;28;20256;-48
2023/10/19 06:52:42;;;;;;;131.57;97.65;;;;;;;8.38;85.98;99866.72;5011433;28;20187;-48
2023/10/19 06:55:13;;;;;;;204.90;107.22;;;;;;;8.39;85.97;99900.47;5010461;28;20223;-49
2023/10/19 06:57:45;;;;;;;129.93;97.53;;;;;;;8.41;85.97;99889.75;5010932;28;20645;-47
2023/10/19 07:00:22;;;;;;;231.35;106.28;;;;;;;8.40;85.59;99880.00;4977724;28;20189;-49
2023/10/19 07:02:50;;;;;;;255.40;106.93;;;;;;;8.42;85.52;99879.03;4991759;28;20269;-49
2023/10/19 07:05:23;;;;;;;259.98;107.43;;;;;;;8.39;85.63;99879.09;4991773;28;20192;-49
2023/10/19 07:07:51;;;;;;;297.67;112.18;;;;;;;8.44;85.86;99892.31;4991877;28;20170;-48
2023/10/19 07:10:18;;;;;;;191.48;108.55;;;;;;;8.37;85.88;99888.13;4974381;28;20239;-50
2023/10/19 07:12:47;;;;;;;232.55;112.35;;;;;;;8.41;85.83;99887.94;4991322;28;20169;-48
2023/10/19 07:15:14;;;;;;;294.42;113.97;;;;;;;8.47;85.72;99884.16;4980433;28;20216;-49
2023/10/19 07:17:43;;;;;;;248.00;113.80;;;;;;;8.51;86.25;99890.22;4998816;28;20228;-49
2023/10/19 07:20:25;;;;;;;198.02;112.55;;;;;;;8.48;85.85;99883.19;5011343;28;20177;-49
2023/10/19 07:22:52;;;;;;;195.20;107.07;;;;;;;8.61;85.71;99889.72;4989160;28;20203;-49
2023/10/19 07:25:21;;;;;;;8.82;4.63;;;;;;;8.55;85.68;99876.66;4978109;28;20322;-49
2023/10/19 07:27:47;;;;;;;5.00;3.53;;;;;;;8.55;85.98;99887.34;4991233;28;20334;-49
2023/10/19 07:30:15;;;;;;;7.28;4.40;;;;;;;8.56;86.23;99889.06;4978179;28;20283;-50
2023/10/19 07:32:41;;;;;;;7.43;3.70;;;;;;;8.56;86.46;99899.75;4983563;28;20171;-48
2023/10/19 07:35:07;;;;;;;8.13;3.90;;;;;;;8.57;86.73;99882.81;5008879;28;20224;-51
2023/10/19 07:37:32;;;;;;;6.75;3.75;;;;;;;8.57;87.27;99896.16;4994726;28;20294;-50
2023/10/19 07:39:58;;;;;;;8.30;5.00;;;;;;;8.57;87.23;99887.25;4988174;28;20213;-48
2023/10/19 07:42:25;;;;;;;9.10;5.10;;;;;;;8.60;87.26;99904.00;4997044;28;20208;-48
2023/10/19 07:44:51;;;;;;;6.55;4.18;;;;;;;8.62;87.42;99888.78;5011049;28;20200;-47
2023/10/19 07:47:17;;;;;;;8.40;4.25;;;;;;;8.65;87.54;99901.13;4966985;28;20690;-47
2023/10/19 07:49:43;;;;;;;11.60;4.43;;;;;;;8.69;87.52;99899.22;4995077;28;20241;-49
2023/10/19 07:52:10;;;;;;;8.23;5.55;;;;;;;8.71;87.54;99900.88;4991233;28;20189;-49
2023/10/19 07:54:36;;;;;;;10.27;4.95;;;;;;;8.67;87.45;99899.25;4982822;28;20622;-48
2023/10/19 07:57:05;;;;;;;6.90;4.32;;;;;;;8.73;87.32;99904.34;4991215;28;20582;-50
2023/10/19 07:59:32;;;;;;;7.57;4.45;;;;;;;8.73;87.32;99919.50;4986641;28;20181;-48
2023/10/19 08:01:58;;;;;;;6.43;4.80;;;;;;;8.81;87.15;99901.28;4988895;28;20566;-47
2023/10/19 08:04:25;;;;;;;10.02;4.78;;;;;;;8.78;86.85;99909.47;4971779;28;20285;-49
2023/10/19 08:06:50;;;;;;;8.77;4.25;;;;;;;8.83;86.56;99913.66;4971662;28;20154;-47
2023/10/19 08:09:22;;;;;;;10.30;4.80;;;;;;;8.81;86.28;99901.28;4977265;28;20212;-48
2023/10/19 08:11:55;;;;;;;6.45;4.03;;;;;;;8.75;86.69;99901.59;4989645;28;20161;-48
2023/10/19 08:14:24;;;;;;;10.40;4.90;;;;;;;8.76;86.54;99911.34;4971897;28;20293;-47
2023/10/19 08:16:51;;;;;;;9.88;4.15;;;;;;;8.79;86.49;99892.47;4971697;28;20550;-47
2023/10/19 08:19:16;;;;;;;5.70;3.92;;;;;;;8.72;86.55;99893.72;4984746;28;20185;-47
2023/10/19 08:21:42;;;;;;;8.00;4.35;;;;;;;8.76;86.75;99906.00;4980276;28;20201;-49
2023/10/19 08:24:13;;;;;;;7.95;4.20;;;;;;;8.85;86.57;99909.13;5010518;28;20247;-49
2023/10/19 08:26:42;;;;;;;6.70;4.90;;;;;;;8.82;86.11;99900.38;5003651;28;20210;-47
2023/10/19 08:29:14;;;;;;;7.32;3.83;;;;;;;8.79;86.25;99908.50;4991274;28;20264;-48
2023/10/19 08:31:46;;;;;;;12.35;4.60;;;;;;;8.79;86.26;99904.06;4991096;28;20237;-48
2023/10/19 08:34:13;;;;;;;7.75;4.30;;;;;;;8.83;86.16;99910.09;4986336;28;20209;-46
2023/10/19 08:36:39;;;;;;;8.60;3.90;;;;;;;8.83;86.04;99899.44;4971469;28;20190;-46
2023/10/19 08:39:05;;;;;;;9.23;5.07;;;;;;;8.86;86.12;99900.16;4971751;28;20178;-46
2023/10/19 08:41:40;;;;;;;6.07;4.68;;;;;;;8.82;86.15;99898.56;4971524;28;20198;-48
2023/10/19 08:44:10;;;;;;;7.40;4.10;;;;;;;8.85;86.20;99908.25;4971148;28;20422;-48
2023/10/19 08:46:47;;;;;;;5.95;3.40;;;;;;;8.80;86.16;99902.25;4972193;28;20534;-48
2023/10/19 08:49:14;;;;;;;7.60;4.10;;;;;;;8.84;86.20;99901.19;5010187;28;20188;-47
2023/10/19 08:51:44;;;;;;;8.10;4.55;;;;;;;8.84;86.22;99903.84;4994903;28;20216;-48
2023/10/19 08:54:11;;;;;;;7.97;4.18;;;;;;;8.90;86.10;99892.00;4992211;28;20213;-46
2023/10/19 08:56:37;;;;;;;8.35;4.03;;;;;;;8.81;86.45;99878.16;4986147;28;20198;-50
2023/10/19 08:59:03;;;;;;;7.22;4.05;;;;;;;8.83;87.06;99891.41;4974970;28;20304;-50
2023/10/19 09:01:29;;;;;;;7.15;3.97;;;;;;;8.86;87.28;99891.28;4974729;28;20225;-49
2023/10/19 09:03:58;;;;;;;6.72;3.90;;;;;;;8.83;87.79;99900.31;4974937;28;20332;-45
2023/10/19 09:06:24;;;;;;;7.00;3.88;;;;;;;8.82;88.29;99903.03;4974778;28;20228;-48
2023/10/19 09:08:49;;;;;;;5.93;3.90;;;;;;;8.85;88.64;99895.78;4982557;28;20193;-47
2023/10/19 09:11:15;;;;;;;9.70;3.75;;;;;;;8.83;88.70;99899.44;4974663;28;20178;-48
2023/10/19 09:13:46;;;;;;;5.93;4.18;;;;;;;8.85;88.88;99897.56;4974519;28;20225;-49
2023/10/19 09:16:14;;;;;;;6.65;4.30;;;;;;;8.85;88.89;99914.47;4978734;28;20207;-48
2023/10/19 09:18:39;;;;;;;11.75;4.50;;;;;;;8.88;89.07;99905.44;4982706;28;20190;-49
2023/10/19 09:21:21;;;;;;;6.85;3.80;;;;;;;8.96;89.81;99897.91;4982982;28;20185;-49
2023/10/19 09:23:47;;;;;;;7.55;4.25;;;;;;;8.86;90.29;99886.81;4985462;28;20703;-48
2023/10/19 09:26:12;;;;;;;10.20;4.68;;;;;;;8.87;90.50;99903.69;4985940;28;20639;-48
2023/10/19 09:28:39;;;;;;;7.90;4.47;;;;;;;8.86;90.78;99904.66;4981966;28;20197;-48
2023/10/19 09:31:05;;;;;;;11.55;5.45;;;;;;;8.84;90.65;99911.84;4982537;28;20182;-47
2023/10/19 09:33:33;;;;;;;12.85;4.75;;;;;;;8.92;90.48;99898.13;4985958;28;20193;-47
2023/10/19 09:36:01;;;;;;;8.73;4.70;;;;;;;8.87;90.65;99901.03;4982958;28;20190;-48
2023/10/19 09:38:27;;;;;;;9.05;4.70;;;;;;;8.89;90.76;99898.28;4984876;28;20198;-48
2023/10/19 09:40:54;;;;;;;9.70;5.88;;;;;;;8.85;91.11;99909.13;4984940;28;20213;-49
2023/10/19 09:43:35;;;;;;;6.88;5.10;;;;;;;8.87;91.42;99895.69;4986188;28;20287;-46
2023/10/19 09:46:06;;;;;;;13.43;5.35;;;;;;;8.91;91.07;99889.25;4985272;28;20193;-47
2023/10/19 09:48:35;;;;;;;8.20;5.25;;;;;;;8.94;90.93;99898.94;4985264;28;20216;-47
2023/10/19 09:51:02;;;;;;;11.20;5.13;;;;;;;9.01;90.79;99909.28;4982286;28;20286;-48
2023/10/19 09:53:29;;;;;;;12.38;5.68;;;;;;;8.96;90.84;99900.59;4966553;28;20260;-49
2023/10/19 09:55:59;;;;;;;10.73;5.40;;;;;;;8.98;91.28;99901.38;4987197;28;20188;-49
2023/10/19 09:59:00;;;;;;;7.28;4.75;;;;;;;9.02;91.10;99902.13;4970798;28;20204;-47
2023/10/19 10:01:27;;;;;;;12.98;4.97;;;;;;;9.11;91.08;99900.81;4963133;28;20315;-49
2023/10/19 10:03:53;;;;;;;11.55;4.82;;;;;;;9.10;91.13;99916.00;4984425;28;20676;-49
2023/10/19 10:06:51;;;;;;;7.70;4.78;;;;;;;9.11;91.48;99922.19;4981464;28;20201;-47
2023/10/19 10:09:24;;;;;;;7.97;5.05;;;;;;;9.10;91.33;99923.16;4984383;28;20280;-48
2023/10/19 10:11:52;;;;;;;9.93;4.95;;;;;;;9.18;91.35;99923.63;4987234;28;20209;-47
2023/10/19 10:14:31;;;;;;;9.93;5.07;;;;;;;9.19;91.47;99928.91;4983177;28;20605;-47
2023/10/19 10:17:01;;;;;;;8.60;5.20;;;;;;;9.14;91.41;99933.63;4986086;28;20189;-47
2023/10/19 10:19:26;;;;;;;10.40;5.05;;;;;;;9.16;91.53;99946.88;4980478;28;20321;-49
2023/10/19 10:22:14;;;;;;;11.40;5.25;;;;;;;9.12;91.98;99927.47;4988152;28;20296;-47
2023/10/19 10:24:43;;;;;;;9.02;4.55;;;;;;;9.14;92.45;99930.94;4980131;28;20205;-47
2023/10/19 10:27:09;;;;;;;6.45;4.72;;;;;;;9.13;92.52;99925.66;4982942;28;20193;-48
2023/10/19 10:29:35;;;;;;;10.73;4.95;;;;;;;9.10;92.86;99928.50;4984122;28;20190;-47
2023/10/19 10:32:02;;;;;;;7.60;5.28;;;;;;;9.12;92.81;99930.16;4984013;28;20272;-48
2023/10/19 10:34:33;;;;;;;11.40;5.57;;;;;;;9.13;92.43;99945.22;4981806;28;20205;-48
2023/10/19 10:37:05;;;;;;;12.05;5.60;;;;;;;9.18;92.14;99929.88;4981867;28;20190;-49
2023/10/19 10:39:31;;;;;;;10.40;5.13;;;;;;;9.19;92.28;99926.25;4978398;28;20256;-48
2023/10/19 10:41:57;;;;;;;10.00;5.22;;;;;;;9.20;92.20;99919.94;4986821;28;20236;-49
2023/10/19 10:44:43;;;;;;;12.75;5.65;;;;;;;9.21;92.24;99919.03;4981732;28;20701;-49
2023/10/19 10:47:11;;;;;;;12.05;5.35;;;;;;;9.22;91.95;99912.72;4983014;28;20190;-48
2023/10/19 10:49:51;;;;;;;10.52;4.88;;;;;;;9.25;91.83;99906.41;4965848;28;20189;-48
2023/10/19 10:52:30;;;;;;;13.10;5.47;;;;;;;9.19;91.92;99906.69;4984214;28;20201;-48
2023/10/19 10:55:11;;;;;;;9.73;4.95;;;;;;;9.13;92.03;99925.66;4981970;28;20293;-48
2023/10/19 10:57:37;;;;;;;10.70;5.00;;;;;;;9.09;92.63;99935.63;4981504;28;20196;-47
2023/10/19 11:00:06;;;;;;;6.30;4.72;;;;;;;9.04;93.03;99921.63;4980536;28;20209;-49
2023/10/19 11:02:32;;;;;;;7.93;5.15;;;;;;;9.04;93.20;99917.13;4979833;28;20385;-49
2023/10/19 11:04:58;;;;;;;9.02;5.28;;;;;;;9.01;93.27;99903.06;4982998;28;20554;-49
2023/10/19 11:07:24;;;;;;;10.05;4.95;;;;;;;9.05;93.19;99902.84;4979057;28;20185;-48
2023/10/19 11:09:49;;;;;;;8.63;4.40;;;;;;;9.15;93.33;99897.94;4982611;28;20710;-48
2023/10/19 11:12:15;;;;;;;12.05;5.13;;;;;;;8.94;93.67;99909.63;4980013;28;20563;-50
2023/10/19 11:14:57;;;;;;;10.95;4.72;;;;;;;8.95;94.62;99911.38;4982519;28;20222;-51
2023/10/19 11:17:32;;;;;;;10.38;4.70;;;;;;;8.98;94.74;99920.09;4980693;28;20206;-48
2023/10/19 11:19:59;;;;;;;11.15;5.00;;;;;;;8.95;95.24;99922.06;4983651;28;20193;-49
2023/10/19 11:22:26;;;;;;;9.98;5.55;;;;;;;8.88;95.65;99916.13;4967334;28;20222;-49
2023/10/19 11:24:53;;;;;;;9.00;4.97;;;;;;;8.95;95.62;99898.00;4980722;28;20243;-49
2023/10/19 11:27:26;;;;;;;9.07;5.05;;;;;;;8.91;95.61;99883.06;4979330;28;20296;-49
2023/10/19 11:29:59;;;;;;;8.43;5.22;;;;;;;8.87;95.60;99896.53;4982266;28;20220;-49
2023/10/19 11:32:25;;;;;;;12.18;5.15;;;;;;;8.85;95.84;99895.78;4977995;28;20182;-50
2023/10/19 11:34:55;;;;;;;14.40;5.88;;;;;;;8.90;95.74;99868.84;4982204;28;20220;-49
2023/10/19 11:37:20;;;;;;;7.47;4.93;;;;;;;8.96;95.94;99871.19;4982883;28;20189;-48
2023/10/19 11:39:46;;;;;;;8.43;4.63;;;;;;;8.84;96.57;99871.78;4983289;28;20823;-47
2023/10/19 11:42:13;;;;;;;7.47;4.85;;;;;;;8.85;97.11;99869.06;4991393;28;20220;-46
2023/10/19 11:44:39;;;;;;;9.75;5.07;;;;;;;8.87;97.90;99877.84;4991334;28;20402;-48
2023/10/19 11:47:05;;;;;;;15.63;5.60;;;;;;;8.87;97.97;99859.13;4991434;28;20172;-48
2023/10/19 11:49:30;;;;;;;9.60;5.63;;;;;;;8.91;98.27;99867.88;4991206;28;20253;-49
2023/10/19 11:51:57;;;;;;;7.63;4.53;;;;;;;8.93;98.40;99875.84;4991067;28;20185;-50
2023/10/19 11:54:23;;;;;;;8.82;5.25;;;;;;;8.85;98.54;99861.03;4991631;28;20699;-48
2023/10/19 11:56:49;;;;;;;11.05;5.45;;;;;;;8.89;98.99;99853.72;4991421;28;20292;-48
2023/10/19 11:59:15;;;;;;;11.00;5.63;;;;;;;8.77;99.76;99843.66;4991429;28;20203;-49